createdAt,value
2023-04-16T00:00:55.285Z,16.13
2023-04-16T00:03:23.961Z,16.15
2023-04-16T00:05:51.697Z,16.48
2023-04-16T00:08:19.599Z,17.08
2023-04-16T00:10:47.284Z,16.92
2023-04-16T00:13:14.935Z,17.50
2023-04-16T00:15:42.613Z,17.55
2023-04-16T00:18:11.646Z,17.95
2023-04-16T00:20:39.339Z,16.95
2023-04-16T00:23:07.015Z,16.73
2023-04-16T00:25:34.654Z,17.02
2023-04-16T00:28:02.286Z,16.52
2023-04-16T00:30:29.943Z,16.83
2023-04-16T00:32:57.649Z,17.08
2023-04-16T00:35:26.725Z,17.70
2023-04-16T00:37:54.366Z,17.63
2023-04-16T00:40:22.157Z,16.77
2023-04-16T00:42:49.783Z,16.90
2023-04-16T00:45:17.494Z,18.48
2023-04-16T00:47:45.217Z,17.08
2023-04-16T00:50:13.230Z,17.60
2023-04-16T00:52:42.296Z,17.77
2023-04-16T00:55:13.238Z,17.85
2023-04-16T00:57:41.086Z,17.52
2023-04-16T01:00:09.792Z,18.40
2023-04-16T01:02:37.759Z,17.25
2023-04-16T01:05:06.477Z,17.90
2023-04-16T01:07:34.118Z,17.15
2023-04-16T01:10:03.613Z,17.27
2023-04-16T01:12:32.480Z,18.38
2023-04-16T01:15:00.662Z,18.23
2023-04-16T01:17:28.375Z,16.23
2023-04-16T01:19:59.774Z,18.02
2023-04-16T01:22:29.120Z,17.00
2023-04-16T01:24:56.873Z,18.08
2023-04-16T01:27:24.478Z,16.83
2023-04-16T01:29:52.298Z,19.08
2023-04-16T01:32:19.991Z,17.10
2023-04-16T01:34:47.670Z,18.88
2023-04-16T01:37:15.703Z,18.60
2023-04-16T01:39:44.677Z,19.55
2023-04-16T01:42:12.271Z,18.15
2023-04-16T01:44:39.906Z,19.75
2023-04-16T01:47:07.826Z,18.05
2023-04-16T01:49:36.380Z,18.20
2023-04-16T01:52:04.001Z,18.73
2023-04-16T01:54:31.820Z,18.20
2023-04-16T01:57:01.703Z,19.20
2023-04-16T01:59:29.371Z,19.00
2023-04-16T02:01:57.160Z,19.17
2023-04-16T02:04:24.892Z,18.60
2023-04-16T02:06:52.510Z,18.95
2023-04-16T02:09:20.123Z,18.33
2023-04-16T02:11:47.725Z,18.92
2023-04-16T02:14:16.739Z,19.15
2023-04-16T02:16:44.436Z,19.13
2023-04-16T02:19:12.157Z,20.67
2023-04-16T02:21:39.796Z,18.98
2023-04-16T02:24:07.463Z,20.65
2023-04-16T02:26:35.116Z,20.58
2023-04-16T02:29:03.002Z,17.65
2023-04-16T02:31:32.156Z,18.13
2023-04-16T02:34:00.176Z,19.17
2023-04-16T02:36:27.859Z,18.27
2023-04-16T02:38:55.494Z,19.75
2023-04-16T02:41:23.170Z,17.92
2023-04-16T02:43:50.883Z,19.98
2023-04-16T02:46:18.673Z,18.70
2023-04-16T02:48:47.664Z,18.65
2023-04-16T02:51:15.385Z,18.45
2023-04-16T02:53:45.818Z,19.35
2023-04-16T02:56:13.696Z,17.63
2023-04-16T02:58:41.399Z,17.63
2023-04-16T03:01:09.052Z,18.52
2023-04-16T03:03:36.784Z,18.13
2023-04-16T03:06:05.973Z,18.52
2023-04-16T03:08:33.667Z,18.85
2023-04-16T03:11:01.510Z,20.25
2023-04-16T03:13:29.154Z,20.42
2023-04-16T03:15:56.855Z,22.13
2023-04-16T03:18:24.542Z,21.08
2023-04-16T03:20:53.149Z,22.50
2023-04-16T03:23:22.191Z,21.50
2023-04-16T03:25:49.870Z,24.88
2023-04-16T03:28:17.584Z,25.27
2023-04-16T03:30:51.532Z,25.50
2023-04-16T03:33:19.421Z,25.23
2023-04-16T03:35:47.169Z,26.52
2023-04-16T03:38:14.869Z,25.73
2023-04-16T03:40:43.875Z,24.98
2023-04-16T03:43:11.458Z,24.83
2023-04-16T03:45:45.138Z,25.13
2023-04-16T03:48:12.985Z,26.05
2023-04-16T03:50:41.196Z,26.70
2023-04-16T03:53:08.873Z,25.70
2023-04-16T03:55:36.906Z,26.13
2023-04-16T03:58:05.947Z,26.20
2023-04-16T04:00:33.819Z,24.58
2023-04-16T04:03:01.690Z,27.13
2023-04-16T04:05:29.518Z,27.25
2023-04-16T04:07:57.126Z,26.65
2023-04-16T04:10:24.820Z,27.38
2023-04-16T04:12:52.479Z,26.77
2023-04-16T04:15:21.556Z,27.33
2023-04-16T04:17:49.239Z,25.90
2023-04-16T04:20:17.018Z,25.65
2023-04-16T04:22:44.699Z,25.90
2023-04-16T04:25:12.410Z,23.95
2023-04-16T04:27:40.115Z,25.35
2023-04-16T04:30:08.994Z,26.38
2023-04-16T04:32:38.011Z,26.30
2023-04-16T04:35:06.166Z,24.83
2023-04-16T04:37:33.804Z,25.15
2023-04-16T04:40:01.508Z,26.23
2023-04-16T04:42:29.161Z,24.13
2023-04-16T04:44:56.819Z,24.55
2023-04-16T04:47:24.586Z,24.55
2023-04-16T04:49:53.707Z,23.60
2023-04-16T04:52:21.507Z,24.58
2023-04-16T04:54:49.242Z,24.17
2023-04-16T04:57:16.912Z,51.80
2023-04-16T04:59:44.567Z,28.50
2023-04-16T05:02:12.344Z,24.40
2023-04-16T05:04:40.099Z,22.88
2023-04-16T05:07:09.173Z,25.75
2023-04-16T05:09:36.853Z,26.10
2023-04-16T05:12:05.152Z,26.15
2023-04-16T05:14:32.755Z,23.38
2023-04-16T05:17:00.471Z,24.42
2023-04-16T05:19:28.387Z,26.80
2023-04-16T05:21:56.174Z,25.73
2023-04-16T05:24:25.382Z,25.25
2023-04-16T05:26:53.017Z,26.42
2023-04-16T05:29:20.777Z,26.00
2023-04-16T05:31:48.400Z,25.15
2023-04-16T05:34:16.174Z,26.27
2023-04-16T05:36:43.936Z,25.77
2023-04-16T05:39:11.827Z,25.38
2023-04-16T05:41:40.921Z,26.10
2023-04-16T05:44:08.574Z,27.38
2023-04-16T05:46:36.340Z,26.73
2023-04-16T05:49:03.981Z,26.10
2023-04-16T05:51:32.364Z,27.33
2023-04-16T05:53:59.994Z,27.70
2023-04-16T05:56:27.861Z,26.40
2023-04-16T05:58:56.896Z,27.40
2023-04-16T06:01:24.586Z,27.75
2023-04-16T06:03:52.258Z,27.67
2023-04-16T06:06:20.023Z,26.70
2023-04-16T06:08:47.776Z,26.90
2023-04-16T06:11:15.727Z,26.83
2023-04-16T06:13:43.788Z,24.42
2023-04-16T06:16:12.839Z,25.80
2023-04-16T06:18:40.572Z,23.80
2023-04-16T06:21:08.300Z,24.08
2023-04-16T06:23:35.971Z,26.17
2023-04-16T06:26:03.616Z,24.83
2023-04-16T06:28:31.286Z,24.00
2023-04-16T06:30:59.035Z,24.60
2023-04-16T06:33:28.102Z,23.13
2023-04-16T06:35:56.565Z,24.25
2023-04-16T06:38:24.225Z,25.85
2023-04-16T06:40:51.918Z,23.73
2023-04-16T06:43:19.826Z,23.40
2023-04-16T06:45:47.452Z,24.02
2023-04-16T06:48:15.410Z,24.35
2023-04-16T06:50:44.497Z,23.65
2023-04-16T06:53:12.304Z,22.55
2023-04-16T06:55:39.954Z,21.48
2023-04-16T06:58:07.577Z,24.60
2023-04-16T07:00:35.429Z,23.08
2023-04-16T07:03:03.318Z,23.35
2023-04-16T07:05:31.650Z,22.42
2023-04-16T07:08:00.924Z,21.80
2023-04-16T07:10:28.586Z,22.83
2023-04-16T07:12:56.277Z,22.58
2023-04-16T07:15:24.010Z,21.70
2023-04-16T07:17:51.764Z,21.70
2023-04-16T07:20:19.551Z,20.20
2023-04-16T07:22:47.383Z,21.27
2023-04-16T07:25:16.394Z,19.50
2023-04-16T07:27:44.104Z,20.30
2023-04-16T07:30:12.280Z,21.25
2023-04-16T07:32:39.961Z,20.92
2023-04-16T07:35:08.440Z,19.88
2023-04-16T07:37:36.042Z,19.58
2023-04-16T07:40:04.148Z,19.80
2023-04-16T07:42:33.245Z,21.13
2023-04-16T07:45:00.883Z,19.95
2023-04-16T07:47:28.658Z,20.17
2023-04-16T07:49:56.351Z,20.42
2023-04-16T07:52:23.984Z,21.92
2023-04-16T07:54:52.030Z,19.27
2023-04-16T07:57:19.755Z,20.60
2023-04-16T07:59:48.892Z,18.15
2023-04-16T08:02:17.579Z,18.95
2023-04-16T08:04:45.591Z,19.90
2023-04-16T08:07:13.401Z,19.02
2023-04-16T08:09:48.904Z,18.90
2023-04-16T08:12:17.353Z,18.70
2023-04-16T08:14:45.037Z,19.23
2023-04-16T08:17:14.511Z,20.08
2023-04-16T08:19:43.792Z,23.33
2023-04-16T08:22:11.735Z,20.85
2023-04-16T08:24:39.428Z,20.52
2023-04-16T08:27:17.941Z,19.58
2023-04-16T08:29:46.651Z,19.92
2023-04-16T08:32:15.773Z,20.55
2023-04-16T08:34:43.505Z,19.00
2023-04-16T08:37:11.204Z,19.45
2023-04-16T08:39:38.890Z,19.42
2023-04-16T08:42:11.128Z,19.60
2023-04-16T08:44:44.732Z,18.25
2023-04-16T08:47:16.676Z,20.50
2023-04-16T08:49:45.818Z,19.27
2023-04-16T08:52:19.401Z,23.17
2023-04-16T08:54:56.328Z,20.30
2023-04-16T08:57:27.334Z,18.00
2023-04-16T08:59:56.889Z,20.88
2023-04-16T09:02:27.466Z,19.60
2023-04-16T09:07:25.199Z,17.80
2023-04-16T09:09:54.838Z,18.38
2023-04-16T09:12:24.694Z,17.77
2023-04-16T09:14:52.550Z,18.98
2023-04-16T09:17:20.802Z,19.27
2023-04-16T09:19:49.847Z,19.30
2023-04-16T09:22:17.893Z,18.30
2023-04-16T09:24:45.647Z,18.15
2023-04-16T09:27:13.668Z,17.05
2023-04-16T09:29:42.408Z,16.55
2023-04-16T09:32:11.633Z,16.75
2023-04-16T09:34:59.800Z,17.27
2023-04-16T09:37:29.658Z,16.83
2023-04-16T09:39:58.738Z,18.25
2023-04-16T09:42:28.660Z,16.85
2023-04-16T09:44:59.400Z,21.92
2023-04-16T09:47:40.971Z,19.52
2023-04-16T09:52:41.043Z,18.50
2023-04-16T09:55:09.251Z,16.58
2023-04-16T09:57:39.013Z,18.25
2023-04-16T10:00:10.266Z,18.47
2023-04-16T10:02:42.817Z,17.65
2023-04-16T10:05:18.671Z,18.30
2023-04-16T10:07:48.641Z,17.73
2023-04-16T10:10:16.656Z,19.50
2023-04-16T10:12:44.598Z,17.85
2023-04-16T10:15:12.621Z,18.70
2023-04-16T10:17:40.647Z,19.27
2023-04-16T10:20:09.371Z,20.00
2023-04-16T10:22:38.886Z,18.30
2023-04-16T10:25:08.823Z,18.17
2023-04-16T10:27:38.109Z,17.25
2023-04-16T10:30:08.298Z,19.48
2023-04-16T10:32:37.966Z,16.98
2023-04-16T10:35:06.817Z,20.35
2023-04-16T10:37:34.554Z,17.98
2023-04-16T10:40:23.492Z,17.95
2023-04-16T10:42:56.024Z,16.38
2023-04-16T10:45:28.452Z,14.90
2023-04-16T10:47:57.701Z,15.30
2023-04-16T10:50:25.626Z,15.82
2023-04-16T10:53:21.080Z,16.50
2023-04-16T10:56:15.522Z,15.73
2023-04-16T10:58:43.342Z,15.63
2023-04-16T11:01:16.402Z,15.85
2023-04-16T11:03:45.617Z,14.45
2023-04-16T11:06:16.481Z,15.35
2023-04-16T11:08:54.096Z,14.18
2023-04-16T11:11:23.988Z,16.17
2023-04-16T11:13:56.949Z,14.98
2023-04-16T11:16:26.299Z,14.25
2023-04-16T11:18:56.324Z,14.63
2023-04-16T11:21:25.181Z,13.23
2023-04-16T11:23:54.421Z,13.52
2023-04-16T11:26:28.608Z,12.93
2023-04-16T11:28:57.316Z,14.52
2023-04-16T11:31:27.084Z,19.20
2023-04-16T11:33:57.099Z,12.68
2023-04-16T11:37:06.239Z,12.25
2023-04-16T11:39:12.802Z,11.88
2023-04-16T11:41:45.313Z,11.35
2023-04-16T11:44:23.938Z,10.75
2023-04-16T11:46:52.471Z,10.48
2023-04-16T11:49:28.639Z,17.37
2023-04-16T11:51:56.413Z,15.00
2023-04-16T11:54:25.672Z,11.20
2023-04-16T11:56:54.884Z,10.52
2023-04-16T11:59:24.211Z,11.50
2023-04-16T12:01:53.214Z,11.23
2023-04-16T12:04:23.030Z,13.40
2023-04-16T12:07:06.766Z,14.38
2023-04-16T12:09:37.864Z,14.55
2023-04-16T12:12:26.404Z,15.23
2023-04-16T12:14:56.705Z,15.45
2023-04-16T12:17:25.094Z,17.33
2023-04-16T12:19:53.719Z,16.92
2023-04-16T12:22:28.764Z,16.45
2023-04-16T12:25:00.868Z,16.50
2023-04-16T12:27:42.399Z,15.95
2023-04-16T12:30:10.864Z,14.63
2023-04-16T12:32:38.710Z,15.77
2023-04-16T12:35:06.791Z,20.15
2023-04-16T12:37:35.314Z,16.85
2023-04-16T12:40:04.726Z,14.20
2023-04-16T12:42:35.971Z,14.05
2023-04-16T12:45:05.000Z,13.13
2023-04-16T12:47:32.851Z,12.75
2023-04-16T12:50:00.650Z,13.80
2023-04-16T12:52:28.409Z,13.35
2023-04-16T12:54:56.087Z,13.27
2023-04-16T12:57:28.430Z,13.75
2023-04-16T12:59:58.289Z,12.10
2023-04-16T13:02:26.856Z,12.90
2023-04-16T13:04:55.420Z,11.13
2023-04-16T13:07:24.103Z,12.25
2023-04-16T13:09:51.816Z,23.35
2023-04-16T13:12:19.542Z,15.77
2023-04-16T13:14:47.199Z,12.15
2023-04-16T13:17:16.287Z,11.65
2023-04-16T13:19:44.032Z,11.15
2023-04-16T13:22:11.682Z,12.15
2023-04-16T13:24:39.433Z,10.20
2023-04-16T13:27:08.375Z,11.50
2023-04-16T13:29:36.995Z,11.02
2023-04-16T13:32:05.383Z,9.95
2023-04-16T13:34:34.421Z,11.50
2023-04-16T13:37:02.115Z,11.13
2023-04-16T13:39:29.812Z,10.25
2023-04-16T13:41:57.547Z,10.93
2023-04-16T13:44:25.269Z,11.63
2023-04-16T13:46:53.824Z,12.95
2023-04-16T13:49:22.582Z,11.93
2023-04-16T13:51:51.647Z,13.13
2023-04-16T13:54:19.319Z,12.27
2023-04-16T13:56:46.997Z,12.70
2023-04-16T13:59:16.644Z,13.70
2023-04-16T14:01:44.343Z,12.48
2023-04-16T14:04:12.071Z,16.38
2023-04-16T14:06:39.740Z,14.57
2023-04-16T14:09:10.597Z,13.38
2023-04-16T14:11:38.703Z,11.25
2023-04-16T14:14:06.553Z,11.65
2023-04-16T14:16:34.353Z,11.15
2023-04-16T14:19:02.143Z,11.98
2023-04-16T14:21:29.823Z,10.52
2023-04-16T14:23:57.484Z,9.98
2023-04-16T14:26:26.640Z,11.00
2023-04-16T14:28:54.326Z,9.65
2023-04-16T14:31:22.070Z,8.95
2023-04-16T14:33:49.748Z,10.93
2023-04-16T14:36:17.457Z,9.52
2023-04-16T14:38:45.247Z,9.27
2023-04-16T14:41:13.861Z,10.10
2023-04-16T14:43:44.242Z,9.63
2023-04-16T14:46:11.953Z,10.50
2023-04-16T14:48:39.600Z,8.43
2023-04-16T14:51:07.345Z,8.32
2023-04-16T14:53:36.464Z,9.10
2023-04-16T14:56:04.252Z,9.75
2023-04-16T14:58:32.115Z,22.42
2023-04-16T15:01:01.147Z,9.63
2023-04-16T15:03:29.079Z,9.20
2023-04-16T15:05:57.072Z,8.77
2023-04-16T15:08:25.036Z,9.13
2023-04-16T15:10:52.929Z,8.40
2023-04-16T15:13:20.616Z,8.63
2023-04-16T15:15:48.629Z,8.23
2023-04-16T15:18:17.790Z,9.02
2023-04-16T15:20:45.964Z,8.63
2023-04-16T15:23:13.622Z,8.13
2023-04-16T15:25:41.554Z,8.88
2023-04-16T15:28:09.266Z,7.88
2023-04-16T15:30:38.318Z,8.32
2023-04-16T15:33:06.037Z,8.85
2023-04-16T15:35:38.809Z,8.10
2023-04-16T15:38:06.502Z,8.85
2023-04-16T15:40:34.304Z,9.18
2023-04-16T15:43:02.021Z,9.68
2023-04-16T15:45:29.788Z,10.20
2023-04-16T15:47:57.463Z,8.80
2023-04-16T15:50:26.455Z,9.35
2023-04-16T15:52:55.470Z,9.13
2023-04-16T15:55:23.429Z,10.02
2023-04-16T15:57:51.307Z,9.52
2023-04-16T16:00:19.120Z,9.05
2023-04-16T16:02:48.015Z,9.60
2023-04-16T16:05:17.009Z,9.20
2023-04-16T16:07:44.864Z,9.73
2023-04-16T16:10:14.092Z,9.23
2023-04-16T16:12:42.131Z,9.00
2023-04-16T16:15:10.967Z,9.32
2023-04-16T16:17:38.974Z,8.70
2023-04-16T16:20:10.253Z,9.25
2023-04-16T16:22:39.081Z,9.18
2023-04-16T16:25:08.008Z,9.50
2023-04-16T16:27:37.179Z,8.90
2023-04-16T16:30:07.240Z,44.50
2023-04-16T16:32:35.141Z,14.23
2023-04-16T16:35:02.887Z,10.50
2023-04-16T16:37:30.503Z,8.43
2023-04-16T16:39:58.153Z,9.35
2023-04-16T16:42:26.564Z,8.20
2023-04-16T16:44:57.430Z,8.68
2023-04-16T16:47:25.419Z,8.25
2023-04-16T16:49:54.588Z,8.70
2023-04-16T16:52:23.902Z,7.95
2023-04-16T16:54:51.618Z,7.90
2023-04-16T16:57:19.876Z,7.95
2023-04-16T16:59:48.385Z,8.43
2023-04-16T17:02:17.599Z,8.50
2023-04-16T17:04:45.416Z,7.80
2023-04-16T17:07:13.054Z,7.43
2023-04-16T17:09:40.778Z,8.00
2023-04-16T17:12:08.506Z,8.38
2023-04-16T17:14:36.241Z,8.02
2023-04-16T17:17:03.924Z,8.30
2023-04-16T17:19:33.070Z,7.93
2023-04-16T17:22:00.717Z,8.50
2023-04-16T17:24:28.432Z,7.90
2023-04-16T17:26:56.330Z,8.35
2023-04-16T17:29:26.038Z,7.93
2023-04-16T17:31:54.223Z,8.40
2023-04-16T17:34:22.290Z,8.63
2023-04-16T17:36:51.459Z,8.43
2023-04-16T17:39:19.126Z,8.57
2023-04-16T17:41:46.834Z,8.70
2023-04-16T17:44:14.596Z,8.57
2023-04-16T17:46:42.403Z,8.95
2023-04-16T17:49:10.118Z,9.70
2023-04-16T17:51:37.758Z,16.02
2023-04-16T17:54:07.177Z,11.57
2023-04-16T17:56:34.880Z,9.43
2023-04-16T17:59:02.561Z,8.90
2023-04-16T18:01:30.718Z,8.93
2023-04-16T18:03:58.649Z,10.10
2023-04-16T18:06:27.493Z,9.43
2023-04-16T18:08:55.387Z,10.07
2023-04-16T18:11:24.383Z,9.48
2023-04-16T18:13:53.701Z,9.65
2023-04-16T18:16:22.397Z,9.07
2023-04-16T18:18:50.326Z,9.30
2023-04-16T18:21:17.929Z,9.25
2023-04-16T18:23:45.796Z,9.32
2023-04-16T18:26:13.452Z,9.45
2023-04-16T18:28:42.478Z,9.23
2023-04-16T18:31:10.827Z,9.90
2023-04-16T18:33:55.803Z,9.48
2023-04-16T18:36:24.810Z,9.77
2023-04-16T18:39:00.168Z,9.15
2023-04-16T18:41:30.037Z,9.35
2023-04-16T18:43:59.470Z,10.00
2023-04-16T18:46:27.817Z,9.80
2023-04-16T18:48:55.650Z,8.82
2023-04-16T18:51:23.615Z,9.32
2023-04-16T18:53:51.565Z,9.27
2023-04-16T18:56:19.426Z,8.68
2023-04-16T18:58:47.968Z,9.50
2023-04-16T19:01:17.869Z,10.57
2023-04-16T19:03:46.342Z,9.43
2023-04-16T19:06:14.072Z,19.30
2023-04-16T19:08:42.257Z,10.50
2023-04-16T19:11:09.929Z,9.48
2023-04-16T19:13:38.562Z,9.77
2023-04-16T19:16:11.780Z,8.82
2023-04-16T19:18:40.960Z,9.23
2023-04-16T19:21:10.716Z,9.07
2023-04-16T19:23:38.592Z,8.77
2023-04-16T19:26:06.645Z,8.50
2023-04-16T19:28:34.362Z,9.27
2023-04-16T19:31:02.458Z,9.57
2023-04-16T19:33:30.133Z,9.95
2023-04-16T19:36:00.158Z,9.55
2023-04-16T19:38:28.203Z,8.82
2023-04-16T19:40:56.226Z,8.90
2023-04-16T19:43:24.107Z,9.85
2023-04-16T19:45:53.792Z,9.27
2023-04-16T19:48:21.696Z,9.87
2023-04-16T19:50:49.517Z,10.68
2023-04-16T19:53:18.741Z,9.85
2023-04-16T19:55:46.897Z,8.68
2023-04-16T19:58:14.630Z,9.05
2023-04-16T20:00:42.620Z,10.20
2023-04-16T20:03:10.787Z,10.27
2023-04-16T20:05:38.510Z,10.38
2023-04-16T20:08:07.069Z,18.73
2023-04-16T20:10:36.109Z,11.88
2023-04-16T20:13:05.270Z,11.07
2023-04-16T20:15:33.263Z,10.90
2023-04-16T20:18:00.899Z,11.57
2023-04-16T20:20:28.951Z,11.00
2023-04-16T20:22:56.791Z,11.65
2023-04-16T20:25:26.464Z,11.27
2023-04-16T20:27:55.483Z,11.83
2023-04-16T20:30:29.206Z,11.65
2023-04-16T20:32:56.975Z,12.40
2023-04-16T20:35:25.000Z,11.70
2023-04-16T20:37:52.652Z,11.63
2023-04-16T20:40:21.115Z,11.20
2023-04-16T20:42:51.088Z,10.65
2023-04-16T20:45:20.396Z,11.50
2023-04-16T20:47:48.423Z,11.73
2023-04-16T20:50:16.539Z,11.13
2023-04-16T20:52:44.419Z,10.93
2023-04-16T20:55:13.029Z,11.05
2023-04-16T20:57:40.724Z,10.13
2023-04-16T21:00:12.357Z,10.80
2023-04-16T21:02:41.576Z,32.80
2023-04-16T21:05:13.993Z,58.13
2023-04-16T21:07:42.223Z,15.65
2023-04-16T21:10:11.051Z,11.65
2023-04-16T21:12:38.861Z,11.43
2023-04-16T21:15:07.540Z,10.73
2023-04-16T21:17:35.257Z,10.45
2023-04-16T21:20:07.122Z,10.75
2023-04-16T21:22:34.801Z,10.43
2023-04-16T21:25:03.093Z,10.25
2023-04-16T21:27:30.824Z,10.80
2023-04-16T21:29:58.679Z,10.73
2023-04-16T21:32:26.408Z,9.82
2023-04-16T21:34:54.034Z,11.45
2023-04-16T21:37:23.411Z,10.98
2023-04-16T21:39:51.102Z,11.63
2023-04-16T21:42:19.123Z,11.00
2023-04-16T21:44:46.849Z,11.55
2023-04-16T21:47:14.626Z,11.18
2023-04-16T21:49:43.106Z,11.85
2023-04-16T21:52:14.125Z,12.05
2023-04-16T21:54:43.820Z,11.32
2023-04-16T21:57:11.692Z,10.85
2023-04-16T21:59:39.828Z,12.20
2023-04-16T22:02:08.172Z,10.75
2023-04-16T22:04:38.405Z,12.93
2023-04-16T22:07:09.357Z,11.68
2023-04-16T22:09:37.127Z,12.00
2023-04-16T22:12:11.156Z,11.85
2023-04-16T22:14:44.097Z,11.93
2023-04-16T22:17:17.697Z,11.57
2023-04-16T22:19:45.501Z,11.30
2023-04-16T22:22:13.718Z,13.23
2023-04-16T22:24:41.419Z,12.13
2023-04-16T22:27:10.811Z,13.23
2023-04-16T22:29:38.432Z,12.45
2023-04-16T22:32:07.871Z,11.15
2023-04-16T22:34:35.906Z,12.55
2023-04-16T22:37:03.738Z,11.80
2023-04-16T22:39:31.979Z,12.02
2023-04-16T22:41:59.675Z,11.88
2023-04-16T22:44:29.065Z,12.63
2023-04-16T22:46:56.704Z,11.88
2023-04-16T22:49:24.411Z,11.45
2023-04-16T22:51:52.111Z,12.73
2023-04-16T22:54:19.695Z,12.88
2023-04-16T22:56:48.805Z,12.25
2023-04-16T22:59:16.444Z,12.15
2023-04-16T23:01:46.134Z,12.55
2023-04-16T23:04:13.858Z,12.30
2023-04-16T23:06:42.025Z,11.68
2023-04-16T23:09:10.886Z,12.07
2023-04-16T23:11:38.729Z,12.07
2023-04-16T23:14:06.675Z,11.60
2023-04-16T23:16:34.359Z,12.25
2023-04-16T23:19:03.850Z,12.43
2023-04-16T23:21:32.401Z,12.20
2023-04-16T23:24:00.125Z,12.35
2023-04-16T23:26:28.141Z,11.80
2023-04-16T23:28:56.952Z,12.73
2023-04-16T23:31:25.252Z,12.32
2023-04-16T23:33:54.020Z,11.30
2023-04-16T23:36:23.051Z,11.82
2023-04-16T23:38:51.002Z,12.05
2023-04-16T23:41:18.603Z,11.23
2023-04-16T23:43:47.101Z,12.25
2023-04-16T23:46:14.805Z,11.75
2023-04-16T23:48:42.443Z,12.70
2023-04-16T23:51:10.504Z,12.13
2023-04-16T23:53:40.671Z,11.73
2023-04-16T23:56:11.434Z,12.32
2023-04-16T23:58:39.162Z,12.80
